createdAt,value
2019-05-15T00:00:13.226Z,100728.03
2019-05-15T00:02:41.716Z,100727.81
2019-05-15T00:05:10.457Z,100725.13
2019-05-15T00:07:39.466Z,100725.53
2019-05-15T00:10:08.963Z,100723.30
2019-05-15T00:12:39.482Z,100717.48
2019-05-15T00:15:09.342Z,100715.95
2019-05-15T00:17:39.343Z,100716.09
2019-05-15T00:20:09.904Z,100712.80
2019-05-15T00:22:39.080Z,100717.44
2019-05-15T00:25:09.243Z,100713.88
2019-05-15T00:27:38.737Z,100710.41
2019-05-15T00:30:09.274Z,100710.93
2019-05-15T00:32:39.246Z,100707.55
2019-05-15T00:35:09.430Z,100700.12
2019-05-15T00:37:38.889Z,100706.66
2019-05-15T00:40:08.761Z,100699.62
2019-05-15T00:42:38.427Z,100697.42
2019-05-15T00:45:09.386Z,100687.63
2019-05-15T00:47:39.682Z,100688.73
2019-05-15T00:50:09.157Z,100687.89
2019-05-15T00:52:39.109Z,100678.94
2019-05-15T00:55:08.857Z,100680.45
2019-05-15T00:57:39.206Z,100678.52
2019-05-15T01:00:09.126Z,100673.55
2019-05-15T01:02:38.811Z,100670.69
2019-05-15T01:05:08.248Z,100664.41
2019-05-15T01:07:39.298Z,100665.11
2019-05-15T01:10:10.379Z,100660.58
2019-05-15T01:12:38.980Z,100654.75
2019-05-15T01:15:09.265Z,100658.36
2019-05-15T01:17:39.066Z,100655.34
2019-05-15T01:20:08.625Z,100649.95
2019-05-15T01:22:39.367Z,100653.02
2019-05-15T01:25:08.597Z,100646.92
2019-05-15T01:27:38.768Z,100645.25
2019-05-15T01:30:09.032Z,100645.51
2019-05-15T01:32:39.613Z,100634.89
2019-05-15T01:35:09.474Z,100637.88
2019-05-15T01:37:39.190Z,100635.25
2019-05-15T01:40:09.069Z,100632.26
2019-05-15T01:42:38.730Z,100641.67
2019-05-15T01:45:08.586Z,100633.69
2019-05-15T01:47:38.811Z,100640.53
2019-05-15T01:50:09.174Z,100638.61
2019-05-15T01:52:39.027Z,100635.95
2019-05-15T01:55:09.333Z,100643.97
2019-05-15T01:57:38.412Z,100644.66
2019-05-15T02:00:09.032Z,100639.74
2019-05-15T02:02:39.005Z,100639.94
2019-05-15T02:05:09.145Z,100638.75
2019-05-15T02:07:39.013Z,100637.97
2019-05-15T02:10:09.181Z,100636.11
2019-05-15T02:12:38.789Z,100632.12
2019-05-15T02:15:08.655Z,100632.09
2019-05-15T02:17:39.292Z,100637.04
2019-05-15T02:20:08.827Z,100631.67
2019-05-15T02:22:41.913Z,100636.70
2019-05-15T02:25:08.760Z,100632.75
2019-05-15T02:27:39.221Z,100633.12
2019-05-15T02:30:17.886Z,100630.06
2019-05-15T02:32:39.565Z,100632.22
2019-05-15T02:35:09.897Z,100630.72
2019-05-15T02:37:40.925Z,100626.20
2019-05-15T02:40:29.423Z,100634.14
2019-05-15T02:42:59.163Z,100633.22
2019-05-15T02:45:30.138Z,100633.11
2019-05-15T02:47:59.675Z,100634.19
2019-05-15T02:50:29.087Z,100633.98
2019-05-15T02:53:00.518Z,100632.12
2019-05-15T02:55:29.682Z,100631.08
2019-05-15T02:57:59.092Z,100629.87
2019-05-15T03:00:37.933Z,100628.09
2019-05-15T03:03:00.211Z,100627.05
2019-05-15T03:05:29.375Z,100562.49
2019-05-15T03:07:59.387Z,100620.48
2019-05-15T03:10:29.692Z,100624.33
2019-05-15T03:13:00.147Z,100625.04
2019-05-15T03:15:29.178Z,100627.43
2019-05-15T03:18:00.312Z,100618.36
2019-05-15T03:20:29.806Z,100615.03
2019-05-15T03:22:59.733Z,100609.06
2019-05-15T03:28:34.744Z,100598.91
2019-05-15T03:31:22.398Z,100600.33
2019-05-15T03:33:36.323Z,100596.42
2019-05-15T03:36:03.838Z,100600.22
2019-05-15T03:38:32.382Z,100592.38
2019-05-15T03:41:00.817Z,100594.16
2019-05-15T03:43:29.512Z,100590.47
2019-05-15T03:46:01.637Z,100592.28
2019-05-15T03:48:29.056Z,100601.45
2019-05-15T03:50:59.753Z,100605.75
2019-05-15T03:53:29.918Z,100602.89
2019-05-15T03:55:58.898Z,100597.86
2019-05-15T03:58:28.878Z,100598.42
2019-05-15T04:01:00.201Z,100597.86
2019-05-15T04:03:30.112Z,100597.98
2019-05-15T04:06:00.581Z,100601.32
2019-05-15T04:08:29.926Z,100596.87
2019-05-15T04:10:59.617Z,100594.97
2019-05-15T04:13:30.078Z,100601.91
2019-05-15T04:15:59.462Z,100602.24
2019-05-15T04:18:29.052Z,100601.17
2019-05-15T04:21:00.223Z,100599.73
2019-05-15T04:23:30.071Z,100598.19
2019-05-15T04:25:59.035Z,100595.56
2019-05-15T04:28:29.459Z,100600.48
2019-05-15T04:30:59.587Z,100601.91
2019-05-15T04:33:29.428Z,100602.36
2019-05-15T04:35:58.981Z,100608.92
2019-05-15T04:38:29.180Z,100608.92
2019-05-15T04:40:59.086Z,100612.35
2019-05-15T04:43:30.147Z,100616.16
2019-05-15T04:45:59.110Z,100615.17
2019-05-15T04:48:28.991Z,100614.70
2019-05-15T04:50:58.862Z,100619.55
2019-05-15T04:53:29.512Z,100615.92
2019-05-15T04:55:59.818Z,100621.41
2019-05-15T04:58:29.626Z,100618.66
2019-05-15T05:00:59.897Z,100618.55
2019-05-15T05:03:29.538Z,100620.58
2019-05-15T05:05:59.063Z,100614.25
2019-05-15T05:08:29.217Z,100620.05
2019-05-15T05:10:59.181Z,100619.20
2019-05-15T05:13:28.693Z,100623.33
2019-05-15T05:15:58.691Z,100632.41
2019-05-15T05:18:29.781Z,100625.95
2019-05-15T05:20:57.847Z,100632.02
2019-05-15T05:23:28.191Z,100626.17
2019-05-15T05:25:58.138Z,100627.17
2019-05-15T05:28:28.980Z,100630.41
2019-05-15T05:30:58.737Z,100626.23
2019-05-15T05:33:28.651Z,100630.78
2019-05-15T05:35:58.312Z,100625.54
2019-05-15T05:38:28.125Z,100628.20
2019-05-15T05:40:58.723Z,100624.58
2019-05-15T05:43:27.084Z,100627.69
2019-05-15T05:45:55.503Z,100623.05
2019-05-15T05:48:23.911Z,100621.41
2019-05-15T05:50:52.425Z,100612.73
2019-05-15T05:53:21.489Z,100616.32
2019-05-15T05:55:53.221Z,100609.05
2019-05-15T05:58:20.345Z,100608.83
2019-05-15T06:00:49.440Z,100606.11
2019-05-15T06:03:19.553Z,100612.78
2019-05-15T06:05:49.456Z,100606.27
2019-05-15T06:08:19.447Z,100608.53
2019-05-15T06:10:49.574Z,100609.45
2019-05-15T06:13:18.650Z,100602.87
2019-05-15T06:15:48.791Z,100605.22
2019-05-15T06:18:19.745Z,100600.25
2019-05-15T06:20:49.454Z,100596.30
2019-05-15T06:23:23.563Z,100594.83
2019-05-15T06:25:49.094Z,100593.34
2019-05-15T06:28:19.535Z,100589.87
2019-05-15T06:30:48.608Z,100590.52
2019-05-15T06:33:18.744Z,100587.69
2019-05-15T06:35:49.022Z,100589.46
2019-05-15T06:38:19.396Z,100590.92
2019-05-15T06:40:48.786Z,100586.14
2019-05-15T06:43:19.272Z,100584.65
2019-05-15T06:45:48.744Z,100593.41
2019-05-15T06:48:18.322Z,100588.55
2019-05-15T06:50:48.943Z,100592.02
2019-05-15T06:53:19.236Z,100591.98
2019-05-15T06:55:48.624Z,100594.41
2019-05-15T06:58:19.175Z,100594.41
2019-05-15T07:00:48.757Z,100573.59
2019-05-15T07:03:24.797Z,100573.59
2019-05-15T07:05:50.526Z,100581.20
2019-05-15T07:08:18.430Z,100583.73
2019-05-15T07:10:48.771Z,100573.50
2019-05-15T07:13:18.235Z,100574.48
2019-05-15T07:15:49.620Z,100574.23
2019-05-15T07:18:19.722Z,100574.35
2019-05-15T07:20:48.831Z,100581.99
2019-05-15T07:23:18.852Z,100569.17
2019-05-15T07:25:49.828Z,100568.00
2019-05-15T07:28:18.189Z,100569.66
2019-05-15T07:30:49.467Z,100567.55
2019-05-15T07:33:27.943Z,100563.48
2019-05-15T07:35:49.214Z,100561.81
2019-05-15T07:38:18.499Z,100560.30
2019-05-15T07:40:54.279Z,100565.59
2019-05-15T07:43:18.149Z,100566.37
2019-05-15T07:45:53.307Z,100559.31
2019-05-15T07:48:18.777Z,100517.35
2019-05-15T07:50:49.646Z,100561.75
2019-05-15T07:53:19.757Z,100560.94
2019-05-15T07:55:50.228Z,100558.91
2019-05-15T07:58:21.255Z,100558.19
2019-05-15T08:00:49.364Z,100554.56
2019-05-15T08:03:18.547Z,100560.25
2019-05-15T08:05:58.224Z,100554.73
2019-05-15T08:08:18.672Z,100556.09
2019-05-15T08:10:48.969Z,100554.02
2019-05-15T08:13:18.507Z,100554.03
2019-05-15T08:15:48.756Z,100547.20
2019-05-15T08:18:18.248Z,100550.77
2019-05-15T08:20:49.168Z,100552.89
2019-05-15T08:23:19.246Z,100552.08
2019-05-15T08:26:05.743Z,100545.52
2019-05-15T08:28:19.051Z,100540.00
2019-05-15T08:30:49.522Z,100540.20
2019-05-15T08:33:18.804Z,100535.80
2019-05-15T08:35:51.348Z,100532.69
2019-05-15T08:38:18.376Z,100531.77
2019-05-15T08:40:48.988Z,100524.69
2019-05-15T08:43:18.619Z,100516.86
2019-05-15T08:45:49.567Z,100514.53
2019-05-15T08:48:18.457Z,100513.06
2019-05-15T08:50:48.677Z,100509.69
2019-05-15T08:53:19.307Z,100513.80
2019-05-15T08:55:48.257Z,100514.43
2019-05-15T08:58:20.295Z,100506.77
2019-05-15T09:00:51.796Z,100512.48
2019-05-15T09:03:18.282Z,100515.98
2019-05-15T09:05:48.467Z,100508.35
2019-05-15T09:08:19.314Z,100506.34
2019-05-15T09:10:49.879Z,100499.00
2019-05-15T09:13:18.872Z,100498.76
2019-05-15T09:15:48.373Z,100492.75
2019-05-15T09:18:19.952Z,100486.86
2019-05-15T09:20:49.153Z,100486.48
2019-05-15T09:23:19.361Z,100480.55
2019-05-15T09:25:49.202Z,100482.59
2019-05-15T09:28:18.906Z,100475.91
2019-05-15T09:30:48.420Z,100470.64
2019-05-15T09:33:19.583Z,100473.72
2019-05-15T09:35:48.975Z,100462.34
2019-05-15T09:38:18.504Z,100465.76
2019-05-15T09:40:50.435Z,100460.97
2019-05-15T09:43:18.162Z,100448.44
2019-05-15T09:45:49.282Z,100448.14
2019-05-15T09:48:19.878Z,100448.31
2019-05-15T09:50:49.352Z,100442.35
2019-05-15T09:53:18.899Z,100441.40
2019-05-15T09:55:49.421Z,100435.95
2019-05-15T09:58:20.227Z,100440.11
2019-05-15T10:00:51.791Z,100441.05
2019-05-15T10:03:19.252Z,100439.67
2019-05-15T10:05:48.417Z,100431.27
2019-05-15T10:08:17.078Z,100426.78
2019-05-15T10:10:45.511Z,100430.79
2019-05-15T10:13:13.921Z,100427.94
2019-05-15T10:15:42.324Z,100434.78
2019-05-15T10:18:10.754Z,100433.66
2019-05-15T10:20:39.171Z,100424.49
2019-05-15T10:23:08.835Z,100429.03
2019-05-15T10:25:38.895Z,100423.05
2019-05-15T10:28:09.722Z,100424.03
2019-05-15T10:30:39.460Z,100415.72
2019-05-15T10:33:08.670Z,100415.56
2019-05-15T10:35:39.346Z,100406.27
2019-05-15T10:38:08.856Z,100414.70
2019-05-15T10:40:41.059Z,100411.29
2019-05-15T10:43:09.020Z,100410.06
2019-05-15T10:45:42.222Z,100405.98
2019-05-15T10:48:09.467Z,100411.13
2019-05-15T10:50:38.785Z,100402.76
2019-05-15T10:53:10.906Z,100396.04
2019-05-15T10:55:39.430Z,100395.08
2019-05-15T10:58:14.113Z,100387.61
2019-05-15T11:00:38.252Z,100383.75
2019-05-15T11:03:08.853Z,100383.34
2019-05-15T11:05:44.881Z,100380.47
2019-05-15T11:08:08.343Z,100377.45
2019-05-15T11:10:38.678Z,100383.89
2019-05-15T11:13:08.984Z,100375.67
2019-05-15T11:15:40.456Z,100368.17
2019-05-15T11:18:09.296Z,100363.74
2019-05-15T11:20:40.855Z,100369.59
2019-05-15T11:23:09.759Z,100359.22
2019-05-15T11:25:38.411Z,100363.91
2019-05-15T11:28:08.182Z,100355.15
2019-05-15T11:30:39.397Z,100359.85
2019-05-15T11:33:09.624Z,100360.66
2019-05-15T11:35:40.765Z,100348.46
2019-05-15T11:38:10.039Z,100353.41
2019-05-15T11:40:38.885Z,100342.19
2019-05-15T11:43:08.522Z,100341.49
2019-05-15T11:45:38.923Z,100338.81
2019-05-15T11:48:08.995Z,100340.28
2019-05-15T11:50:40.030Z,100340.99
2019-05-15T11:53:08.713Z,100341.78
2019-05-15T11:55:38.736Z,100345.30
2019-05-15T11:58:09.382Z,100334.14
2019-05-15T12:00:38.361Z,100330.69
2019-05-15T12:03:08.923Z,100330.92
2019-05-15T12:05:38.557Z,100327.23
2019-05-15T12:08:09.081Z,100320.72
2019-05-15T12:10:38.987Z,100324.75
2019-05-15T12:13:09.771Z,100318.29
2019-05-15T12:15:38.911Z,100307.75
2019-05-15T12:18:08.774Z,100310.36
2019-05-15T12:20:38.938Z,100316.09
2019-05-15T12:23:08.984Z,100306.46
2019-05-15T12:25:39.585Z,100300.45
2019-05-15T12:28:09.550Z,100315.61
2019-05-15T12:30:40.238Z,100313.11
2019-05-15T12:35:40.085Z,100318.69
2019-05-15T12:37:59.047Z,100317.41
2019-05-15T12:38:10.041Z,100310.20
2019-05-15T13:00:40.289Z,100285.56
2019-05-15T13:03:09.171Z,100289.26
2019-05-15T13:05:39.159Z,100284.09
2019-05-15T13:08:08.427Z,100284.28
2019-05-15T13:10:38.346Z,100277.60
2019-05-15T13:13:09.386Z,100274.13
2019-05-15T13:15:40.872Z,100269.21
2019-05-15T13:18:13.983Z,100274.41
2019-05-15T13:20:38.376Z,100262.23
2019-05-15T13:23:08.218Z,100274.30
2019-05-15T13:25:39.319Z,100269.58
2019-05-15T13:28:08.997Z,100268.27
2019-05-15T13:30:40.837Z,100259.67
2019-05-15T13:33:09.943Z,100258.33
2019-05-15T13:35:38.140Z,100261.85
2019-05-15T13:38:09.492Z,100268.17
2019-05-15T13:40:38.922Z,100262.59
2019-05-15T13:43:08.358Z,100260.38
2019-05-15T13:45:38.631Z,100252.91
2019-05-15T13:48:08.982Z,100254.17
2019-05-15T13:50:40.415Z,100246.70
2019-05-15T13:53:10.418Z,100257.29
2019-05-15T13:55:42.383Z,100252.97
2019-05-15T13:58:09.012Z,100249.80
2019-05-15T14:00:38.924Z,100243.78
2019-05-15T14:03:09.042Z,100244.09
2019-05-15T14:05:38.424Z,100242.88
2019-05-15T14:08:07.674Z,100240.00
2019-05-15T14:10:38.293Z,100230.84
2019-05-15T14:13:06.460Z,100233.00
2019-05-15T14:15:35.027Z,100234.20
2019-05-15T14:18:03.520Z,100230.57
2019-05-15T14:20:32.013Z,100228.39
2019-05-15T14:23:00.407Z,100225.69
2019-05-15T14:25:28.927Z,100229.53
2019-05-15T14:27:59.460Z,100230.48
2019-05-15T14:30:29.259Z,100224.58
2019-05-15T14:32:59.763Z,100228.70
2019-05-15T14:35:27.989Z,100220.31
2019-05-15T14:38:03.587Z,100210.92
2019-05-15T14:40:26.602Z,100211.28
2019-05-15T14:42:55.030Z,100219.42
2019-05-15T14:45:23.686Z,100207.84
2019-05-15T14:47:52.105Z,100219.75
2019-05-15T14:50:20.599Z,100219.05
2019-05-15T14:52:48.998Z,100211.02
2019-05-15T14:55:17.479Z,100211.94
2019-05-15T14:57:48.493Z,100211.80
2019-05-15T15:00:19.834Z,100220.53
2019-05-15T15:02:49.466Z,100219.78
2019-05-15T15:05:21.545Z,100220.47
2019-05-15T15:07:49.208Z,100211.65
2019-05-15T15:10:20.076Z,100211.34
2019-05-15T15:12:49.911Z,100216.96
2019-05-15T15:15:18.828Z,100207.71
2019-05-15T15:17:49.347Z,100203.09
2019-05-15T15:20:17.917Z,100188.66
2019-05-15T15:22:48.543Z,100198.67
2019-05-15T15:25:16.703Z,100211.31
2019-05-15T15:27:45.180Z,100207.23
2019-05-15T15:30:15.808Z,100206.30
2019-05-15T15:32:44.145Z,100198.89
2019-05-15T15:35:13.582Z,100200.89
2019-05-15T15:37:41.981Z,100196.95
2019-05-15T15:40:10.613Z,100196.48
2019-05-15T15:42:39.674Z,100204.89
2019-05-15T15:45:09.507Z,100196.64
2019-05-15T15:47:39.005Z,100198.60
2019-05-15T15:50:09.440Z,100198.34
2019-05-15T15:52:38.726Z,100198.26
2019-05-15T15:55:09.310Z,100202.59
2019-05-15T15:57:39.742Z,100207.59
2019-05-15T16:00:09.879Z,100203.64
2019-05-15T16:02:41.006Z,100208.36
2019-05-15T16:05:09.890Z,100211.22
2019-05-15T16:07:38.750Z,100210.52
2019-05-15T16:10:08.705Z,100212.11
2019-05-15T16:12:38.733Z,100215.08
2019-05-15T16:15:09.310Z,100222.98
2019-05-15T16:17:38.384Z,100215.53
2019-05-15T16:20:09.426Z,100209.19
2019-05-15T16:22:38.308Z,100201.28
2019-05-15T16:25:10.013Z,100207.92
2019-05-15T16:27:38.696Z,100200.65
2019-05-15T16:30:08.793Z,100202.52
2019-05-15T16:32:38.760Z,100194.89
2019-05-15T16:35:08.604Z,100186.83
2019-05-15T16:37:38.996Z,100191.32
2019-05-15T16:40:07.945Z,100197.11
2019-05-15T16:42:38.624Z,100202.78
2019-05-15T16:45:09.619Z,100197.72
2019-05-15T16:47:38.852Z,100196.16
2019-05-15T16:50:09.041Z,100195.27
2019-05-15T16:52:38.730Z,100191.61
2019-05-15T16:55:09.633Z,100195.77
2019-05-15T16:57:38.908Z,100198.66
2019-05-15T17:00:10.101Z,100190.41
2019-05-15T17:02:39.463Z,100205.41
2019-05-15T17:05:09.369Z,100200.26
2019-05-15T17:07:38.783Z,100201.98
2019-05-15T17:10:08.615Z,100202.77
2019-05-15T17:12:38.620Z,100206.55
2019-05-15T17:15:09.078Z,100200.45
2019-05-15T17:17:38.724Z,100200.13
2019-05-15T17:20:10.219Z,100200.91
2019-05-15T17:22:38.818Z,100205.25
2019-05-15T17:25:10.215Z,100204.81
2019-05-15T17:27:38.655Z,100207.68
2019-05-15T17:30:09.598Z,100211.98
2019-05-15T17:32:39.644Z,100214.34
2019-05-15T17:35:09.922Z,100209.53
2019-05-15T17:37:38.841Z,100214.34
2019-05-15T17:40:08.006Z,100210.34
2019-05-15T17:42:39.066Z,100216.20
2019-05-15T17:45:09.069Z,100210.64
2019-05-15T17:47:38.779Z,100214.55
2019-05-15T17:50:08.605Z,100211.14
2019-05-15T17:52:38.840Z,100209.09
2019-05-15T17:55:07.746Z,100212.38
2019-05-15T17:57:38.801Z,100206.73
2019-05-15T18:00:12.068Z,100215.78
2019-05-15T18:02:38.657Z,100211.53
2019-05-15T18:05:08.885Z,100216.16
2019-05-15T18:07:39.033Z,100218.59
2019-05-15T18:10:08.557Z,100219.78
2019-05-15T18:12:38.949Z,100215.07
2019-05-15T18:15:09.174Z,100215.66
2019-05-15T18:17:39.246Z,100216.75
2019-05-15T18:20:10.057Z,100227.30
2019-05-15T18:22:38.704Z,100224.95
2019-05-15T18:25:09.100Z,100225.41
2019-05-15T18:27:38.844Z,100225.15
2019-05-15T18:30:09.335Z,100233.95
2019-05-15T18:32:39.220Z,100241.67
2019-05-15T18:35:08.461Z,100239.55
2019-05-15T18:37:39.395Z,100240.17
2019-05-15T18:40:09.792Z,100236.35
2019-05-15T18:42:39.510Z,100248.02
2019-05-15T18:45:08.889Z,100241.61
2019-05-15T18:47:39.056Z,100243.08
2019-05-15T18:50:13.293Z,100246.63
2019-05-15T18:52:39.207Z,100254.56
2019-05-15T18:55:08.270Z,100254.88
2019-05-15T18:57:38.598Z,100254.02
2019-05-15T19:00:08.947Z,100248.88
2019-05-15T19:02:39.235Z,100254.73
2019-05-15T19:05:08.380Z,100261.08
2019-05-15T19:07:38.414Z,100259.55
2019-05-15T19:10:08.627Z,100259.33
2019-05-15T19:12:37.894Z,100262.20
2019-05-15T19:15:09.366Z,100256.89
2019-05-15T19:17:38.898Z,100264.97
2019-05-15T19:20:08.550Z,100258.50
2019-05-15T19:22:40.649Z,100261.11
2019-05-15T19:25:08.782Z,100258.48
2019-05-15T19:27:39.342Z,100267.84
2019-05-15T19:30:09.072Z,100264.92
2019-05-15T19:32:38.860Z,100267.48
2019-05-15T19:35:08.164Z,100274.48
2019-05-15T19:37:38.467Z,100272.91
2019-05-15T19:40:08.676Z,100279.06
2019-05-15T19:42:38.395Z,100271.27
2019-05-15T19:45:09.651Z,100271.27
2019-05-15T19:47:38.977Z,100279.80
2019-05-15T19:50:09.520Z,100281.55
2019-05-15T19:52:38.342Z,100278.72
2019-05-15T19:55:08.856Z,100279.23
2019-05-15T19:57:38.946Z,100282.73
2019-05-15T20:03:47.266Z,100283.36
2019-05-15T20:06:04.623Z,100282.09
2019-05-15T20:08:33.014Z,100287.91
2019-05-15T20:11:01.447Z,100292.04
2019-05-15T20:13:30.137Z,100284.27
2019-05-15T20:15:58.593Z,100286.20
2019-05-15T20:18:27.868Z,100283.53
2019-05-15T20:20:58.492Z,100283.38
2019-05-15T20:23:28.738Z,100284.92
2019-05-15T20:25:57.670Z,100284.09
2019-05-15T20:28:29.212Z,100276.80
2019-05-15T20:30:58.675Z,100278.84
2019-05-15T20:33:28.548Z,100278.84
2019-05-15T20:35:58.881Z,100276.20
2019-05-15T20:38:28.537Z,100279.02
2019-05-15T20:40:59.803Z,100279.02
2019-05-15T20:43:27.260Z,100275.54
2019-05-15T20:45:57.757Z,100265.77
2019-05-15T20:48:28.721Z,100265.77
2019-05-15T20:50:58.746Z,100265.27
2019-05-15T20:53:28.571Z,100263.50
2019-05-15T20:55:58.881Z,100263.50
2019-05-15T20:58:27.214Z,100257.20
2019-05-15T21:00:58.867Z,100250.24
2019-05-15T21:03:25.913Z,100250.24
2019-05-15T21:05:54.308Z,100256.25
2019-05-15T21:08:22.706Z,100252.28
2019-05-15T21:10:51.112Z,100252.28
2019-05-15T21:13:19.545Z,100247.19
2019-05-15T21:15:48.575Z,100243.75
2019-05-15T21:18:21.253Z,100243.75
2019-05-15T21:20:48.314Z,100241.58
2019-05-15T21:23:18.236Z,100237.67
2019-05-15T21:25:48.511Z,100237.67
2019-05-15T21:28:17.122Z,100245.61
2019-05-15T21:30:45.519Z,100249.25
2019-05-15T21:33:13.935Z,100239.67
2019-05-15T21:35:42.343Z,100239.67
2019-05-15T21:38:10.996Z,100240.19
2019-05-15T21:40:39.387Z,100240.19
2019-05-15T21:43:08.761Z,100233.23
2019-05-15T21:45:37.682Z,100236.90
2019-05-15T21:48:09.059Z,100238.56
2019-05-15T21:50:38.849Z,100229.63
2019-05-15T21:53:07.432Z,100232.09
2019-05-15T21:55:36.066Z,100229.30
2019-05-15T21:58:04.523Z,100231.76
2019-05-15T22:00:38.276Z,100231.62
2019-05-15T22:03:07.202Z,100227.31
2019-05-15T22:05:35.746Z,100229.12
2019-05-15T22:08:04.416Z,100216.37
2019-05-15T22:10:33.470Z,100206.29
2019-05-15T22:13:02.864Z,100211.09
2019-05-15T22:15:31.461Z,100209.11
2019-05-15T22:17:59.949Z,100200.34
2019-05-15T22:20:30.545Z,100195.88
2019-05-15T22:22:59.581Z,100189.27
2019-05-15T22:25:29.039Z,100187.09
2019-05-15T22:27:58.074Z,100182.63
2019-05-15T22:30:30.044Z,100178.66
2019-05-15T22:32:58.734Z,100174.19
2019-05-15T22:35:29.419Z,100167.88
2019-05-15T22:37:58.437Z,100169.88
2019-05-15T22:40:28.999Z,100165.41
2019-05-15T22:42:59.096Z,100162.77
2019-05-15T22:45:28.583Z,100157.94
2019-05-15T22:47:58.608Z,100154.42
2019-05-15T22:50:28.113Z,100147.44
2019-05-15T22:52:58.699Z,100153.38
2019-05-15T22:55:28.885Z,100149.23
2019-05-15T22:57:58.681Z,100155.13
2019-05-15T23:00:28.938Z,100146.72
2019-05-15T23:02:58.112Z,100151.30
2019-05-15T23:05:29.356Z,100141.57
2019-05-15T23:07:59.015Z,100137.25
2019-05-15T23:10:29.150Z,100139.64
2019-05-15T23:12:58.120Z,100137.95
2019-05-15T23:15:28.187Z,100136.94
2019-05-15T23:17:58.188Z,100133.32
2019-05-15T23:20:28.628Z,100130.53
2019-05-15T23:22:58.444Z,100129.70
2019-05-15T23:25:28.874Z,100124.76
2019-05-15T23:27:58.155Z,100123.91
2019-05-15T23:30:28.894Z,100112.86
2019-05-15T23:32:58.052Z,100115.31
2019-05-15T23:35:35.513Z,100111.96
2019-05-15T23:37:58.118Z,100108.27
2019-05-15T23:40:28.840Z,100104.77
2019-05-15T23:42:56.994Z,100100.42
2019-05-15T23:45:25.446Z,100102.83
2019-05-15T23:47:54.120Z,100099.90
2019-05-15T23:50:22.540Z,100091.42
2019-05-15T23:52:53.294Z,100095.48
2019-05-15T23:55:21.673Z,100091.47
2019-05-15T23:57:52.791Z,100087.97
